ORB436S FHSH-GVSV
Flight info
| Callsign | ORB436S |
|---|---|
| Flight time | 5h 28m |
| Altitude | 43000 |
| Route | 09S010W/N0478F410 DCT GENED DCT 06S010W/N0469F430 02N020W/N0479F410 03N020W 04N020W 05N020W 06N020W 07N020W 08N020W/N0472F430 DCT BOTNO DCT SNT SNT1Y |
| Aircraft | C700/M-SBDGHM1RWXY/LB2 |
Departure
| Time | 2026-04-27 13:41 |
|---|---|
| Airport | Saint Helena International Airport (FHSH) |
Arrival
| Time | 2026-04-27 19:10 |
|---|---|
| Airport | Cesaria Evora International Airport (GVSV) |
| Time | Latitude | Longitude | Altitude | Speed | Heading |
|---|---|---|---|---|---|
| 2026-04-27 13:25 | -15.96187 | -5.64828 | 1003 ft | 0 kts | 314° |
| 2026-04-27 13:34 | -15.96181 | -5.64815 | 1004 ft | 5 kts | 129° |
| 2026-04-27 13:34 | -15.96203 | -5.64788 | 1002 ft | 4 kts | 128° |
| 2026-04-27 13:35 | -15.96227 | -5.64746 | 1003 ft | 9 kts | 123° |
| 2026-04-27 13:35 | -15.96244 | -5.64700 | 1003 ft | 6 kts | 105° |
| 2026-04-27 13:35 | -15.96250 | -5.64674 | 1004 ft | 0 kts | 102° |
| 2026-04-27 13:35 | -15.96252 | -5.64665 | 1004 ft | 5 kts | 101° |
| 2026-04-27 13:36 | -15.96262 | -5.64622 | 1006 ft | 6 kts | 112° |
| 2026-04-27 13:36 | -15.96320 | -5.64588 | 1007 ft | 15 kts | 179° |
| 2026-04-27 13:36 | -15.96413 | -5.64594 | 1005 ft | 2 kts | 207° |
| 2026-04-27 13:36 | -15.96397 | -5.64579 | 1005 ft | 14 kts | 6° |
| 2026-04-27 13:37 | -15.96308 | -5.64582 | 1008 ft | 12 kts | 358° |
| 2026-04-27 13:37 | -15.96210 | -5.64585 | 1006 ft | 16 kts | 356° |
| 2026-04-27 13:37 | -15.96080 | -5.64594 | 1004 ft | 21 kts | 352° |
| 2026-04-27 13:37 | -15.95932 | -5.64595 | 1010 ft | 22 kts | 359° |
| 2026-04-27 13:38 | -15.95784 | -5.64593 | 1009 ft | 21 kts | 360° |
| 2026-04-27 13:38 | -15.95636 | -5.64601 | 1010 ft | 22 kts | 1° |
| 2026-04-27 13:38 | -15.95484 | -5.64600 | 1007 ft | 22 kts | 356° |
| 2026-04-27 13:38 | -15.95341 | -5.64605 | 1007 ft | 17 kts | 359° |
| 2026-04-27 13:39 | -15.95226 | -5.64603 | 1003 ft | 16 kts | 1° |
| 2026-04-27 13:39 | -15.95100 | -5.64604 | 1003 ft | 19 kts | 357° |
| 2026-04-27 13:39 | -15.94977 | -5.64647 | 1000 ft | 17 kts | 346° |
| 2026-04-27 13:39 | -15.94949 | -5.64619 | 1002 ft | 6 kts | 146° |
| 2026-04-27 13:40 | -15.94969 | -5.64615 | 1002 ft | 2 kts | 178° |
| 2026-04-27 13:40 | -15.95142 | -5.64612 | 1003 ft | 53 kts | 178° |
| 2026-04-27 13:40 | -15.95714 | -5.64598 | 1010 ft | 110 kts | 179° |
| 2026-04-27 13:40 | -15.96647 | -5.64573 | 1039 ft | 154 kts | 173° |
| 2026-04-27 13:41 | -15.97810 | -5.64587 | 1260 ft | 180 kts | 178° |
| 2026-04-27 13:41 | -15.99148 | -5.64640 | 1779 ft | 204 kts | 178° |
| 2026-04-27 13:41 | -16.00541 | -5.64627 | 2181 ft | 200 kts | 162° |
| 2026-04-27 13:41 | -16.01694 | -5.63880 | 2638 ft | 197 kts | 124° |
| 2026-04-27 13:42 | -16.02094 | -5.62549 | 3093 ft | 194 kts | 86° |
| 2026-04-27 13:42 | -16.01555 | -5.61281 | 3561 ft | 201 kts | 48° |
| 2026-04-27 13:42 | -16.00258 | -5.60701 | 4190 ft | 219 kts | 2° |
| 2026-04-27 13:42 | -15.98784 | -5.61287 | 5316 ft | 243 kts | 322° |
| 2026-04-27 13:43 | -15.97654 | -5.62639 | 6640 ft | 251 kts | 309° |
| 2026-04-27 13:43 | -15.96503 | -5.64037 | 7574 ft | 248 kts | 315° |
| 2026-04-27 13:43 | -15.95127 | -5.65212 | 8452 ft | 266 kts | 326° |
| 2026-04-27 13:43 | -15.93568 | -5.66167 | 9346 ft | 259 kts | 330° |
| 2026-04-27 13:44 | -15.91951 | -5.67120 | 10232 ft | 268 kts | 328° |
| 2026-04-27 13:44 | -15.90375 | -5.68149 | 11045 ft | 272 kts | 326° |
| 2026-04-27 13:44 | -15.88759 | -5.69229 | 11890 ft | 278 kts | 327° |
| 2026-04-27 13:44 | -15.87119 | -5.70293 | 12747 ft | 280 kts | 327° |
| 2026-04-27 13:45 | -15.85435 | -5.71370 | 13629 ft | 290 kts | 327° |
| 2026-04-27 13:45 | -15.83711 | -5.72482 | 14440 ft | 299 kts | 327° |
| 2026-04-27 13:45 | -15.81972 | -5.73611 | 15248 ft | 294 kts | 327° |
| 2026-04-27 13:45 | -15.80211 | -5.74754 | 16072 ft | 303 kts | 328° |
| 2026-04-27 13:46 | -15.78403 | -5.75921 | 16925 ft | 307 kts | 328° |
| 2026-04-27 13:46 | -15.76587 | -5.77093 | 17797 ft | 308 kts | 328° |
| 2026-04-27 13:46 | -15.74755 | -5.78277 | 18652 ft | 313 kts | 328° |
| 2026-04-27 13:46 | -15.72895 | -5.79480 | 19438 ft | 317 kts | 328° |
| 2026-04-27 13:47 | -15.71026 | -5.80687 | 20251 ft | 316 kts | 328° |
| 2026-04-27 13:47 | -15.69157 | -5.81894 | 21072 ft | 317 kts | 328° |
| 2026-04-27 13:47 | -15.67280 | -5.83107 | 21933 ft | 319 kts | 328° |
| 2026-04-27 13:47 | -15.65394 | -5.84325 | 22802 ft | 320 kts | 328° |
| 2026-04-27 13:48 | -15.63506 | -5.85543 | 23703 ft | 319 kts | 328° |
| 2026-04-27 13:48 | -15.61623 | -5.86757 | 24458 ft | 318 kts | 328° |
| 2026-04-27 13:48 | -15.59753 | -5.87964 | 25239 ft | 315 kts | 327° |
| 2026-04-27 13:48 | -15.57905 | -5.89156 | 26031 ft | 312 kts | 327° |
| 2026-04-27 13:49 | -15.56077 | -5.90335 | 26855 ft | 307 kts | 327° |
| 2026-04-27 13:49 | -15.54278 | -5.91495 | 27689 ft | 301 kts | 327° |
| 2026-04-27 13:49 | -15.52528 | -5.92623 | 28554 ft | 293 kts | 327° |
| 2026-04-27 13:49 | -15.50825 | -5.93721 | 29435 ft | 283 kts | 327° |
| 2026-04-27 13:50 | -15.49183 | -5.94779 | 30308 ft | 272 kts | 327° |
| 2026-04-27 13:50 | -15.48133 | -5.95455 | 30798 ft | 266 kts | 327° |
| 2026-04-27 13:50 | -15.46538 | -5.96484 | 31028 ft | 274 kts | 327° |
| 2026-04-27 13:50 | -15.44898 | -5.97541 | 31270 ft | 281 kts | 327° |
| 2026-04-27 13:51 | -15.42660 | -5.98982 | 31604 ft | 291 kts | 327° |
| 2026-04-27 13:51 | -15.40923 | -6.00100 | 31876 ft | 297 kts | 327° |
| 2026-04-27 13:51 | -15.39146 | -6.01244 | 32146 ft | 304 kts | 326° |
| 2026-04-27 13:51 | -15.37331 | -6.02412 | 32422 ft | 310 kts | 326° |
| 2026-04-27 13:52 | -15.36086 | -6.03213 | 32601 ft | 315 kts | 326° |
| 2026-04-27 13:52 | -15.34206 | -6.04423 | 32897 ft | 321 kts | 326° |
| 2026-04-27 13:52 | -15.32296 | -6.05651 | 33185 ft | 327 kts | 326° |
| 2026-04-27 13:52 | -15.30343 | -6.06907 | 33480 ft | 333 kts | 326° |
| 2026-04-27 13:53 | -15.26348 | -6.09475 | 34067 ft | 344 kts | 326° |
| 2026-04-27 13:53 | -15.24326 | -6.10774 | 34325 ft | 348 kts | 326° |
| 2026-04-27 13:53 | -15.22282 | -6.12086 | 34585 ft | 343 kts | 326° |
| 2026-04-27 13:54 | -15.20257 | -6.13386 | 34839 ft | 342 kts | 326° |
| 2026-04-27 13:54 | -15.18196 | -6.14711 | 35126 ft | 345 kts | 326° |
| 2026-04-27 13:54 | -15.16150 | -6.16025 | 35472 ft | 347 kts | 326° |
| 2026-04-27 13:54 | -15.14118 | -6.17329 | 35814 ft | 349 kts | 326° |
| 2026-04-27 13:55 | -15.12022 | -6.18674 | 36167 ft | 351 kts | 326° |
| 2026-04-27 13:55 | -15.09973 | -6.19988 | 36503 ft | 352 kts | 326° |
| 2026-04-27 13:55 | -15.07884 | -6.21328 | 36844 ft | 354 kts | 326° |
| 2026-04-27 13:55 | -15.05784 | -6.22675 | 37165 ft | 356 kts | 326° |
| 2026-04-27 13:56 | -15.03673 | -6.24028 | 37484 ft | 358 kts | 326° |
| 2026-04-27 13:56 | -15.01551 | -6.25388 | 37807 ft | 359 kts | 326° |
| 2026-04-27 13:56 | -14.99420 | -6.26754 | 38125 ft | 361 kts | 326° |
| 2026-04-27 13:56 | -14.97275 | -6.28128 | 38417 ft | 363 kts | 326° |
| 2026-04-27 13:57 | -14.95125 | -6.29505 | 38706 ft | 364 kts | 326° |
| 2026-04-27 13:57 | -14.92965 | -6.30888 | 38933 ft | 366 kts | 326° |
| 2026-04-27 13:57 | -14.90801 | -6.32274 | 39147 ft | 368 kts | 326° |
| 2026-04-27 13:57 | -14.88621 | -6.33669 | 39355 ft | 369 kts | 326° |
| 2026-04-27 13:58 | -14.86433 | -6.35069 | 39557 ft | 371 kts | 326° |
| 2026-04-27 13:58 | -14.84234 | -6.36476 | 39742 ft | 372 kts | 326° |
| 2026-04-27 13:58 | -14.82027 | -6.37888 | 39922 ft | 374 kts | 326° |
| 2026-04-27 13:58 | -14.79804 | -6.39309 | 40091 ft | 376 kts | 326° |
| 2026-04-27 13:59 | -14.77576 | -6.40733 | 40259 ft | 377 kts | 326° |
| 2026-04-27 13:59 | -14.75341 | -6.42162 | 40420 ft | 379 kts | 326° |
| 2026-04-27 13:59 | -14.73099 | -6.43594 | 40578 ft | 380 kts | 326° |
| 2026-04-27 13:59 | -14.70845 | -6.45033 | 40720 ft | 381 kts | 326° |
| 2026-04-27 14:00 | -14.68584 | -6.46478 | 40859 ft | 383 kts | 326° |
| 2026-04-27 14:00 | -14.66315 | -6.47927 | 40995 ft | 384 kts | 326° |
| 2026-04-27 14:00 | -14.64037 | -6.49381 | 41124 ft | 386 kts | 326° |
| 2026-04-27 14:00 | -14.61782 | -6.50819 | 41260 ft | 387 kts | 326° |
| 2026-04-27 14:01 | -14.59490 | -6.52282 | 41386 ft | 388 kts | 326° |
| 2026-04-27 14:01 | -14.57192 | -6.53748 | 41505 ft | 389 kts | 327° |
| 2026-04-27 14:01 | -14.54886 | -6.55218 | 41626 ft | 390 kts | 327° |
| 2026-04-27 14:01 | -14.52580 | -6.56688 | 41734 ft | 391 kts | 327° |
| 2026-04-27 14:02 | -14.50264 | -6.58164 | 41858 ft | 392 kts | 327° |
| 2026-04-27 14:02 | -14.47943 | -6.59643 | 41970 ft | 393 kts | 327° |
| 2026-04-27 14:02 | -14.45615 | -6.61127 | 42074 ft | 394 kts | 327° |
| 2026-04-27 14:02 | -14.43280 | -6.62613 | 42175 ft | 395 kts | 327° |
| 2026-04-27 14:03 | -14.40939 | -6.64104 | 42266 ft | 396 kts | 327° |
| 2026-04-27 14:03 | -14.36238 | -6.67096 | 42460 ft | 398 kts | 327° |
| 2026-04-27 14:04 | -14.31515 | -6.70101 | 42643 ft | 400 kts | 327° |
| 2026-04-27 14:04 | -14.26770 | -6.73118 | 42816 ft | 401 kts | 327° |
| 2026-04-27 14:05 | -14.22005 | -6.76146 | 42986 ft | 403 kts | 327° |
| 2026-04-27 14:05 | -14.17219 | -6.79186 | 43139 ft | 405 kts | 327° |
| 2026-04-27 14:06 | -14.12412 | -6.82239 | 43292 ft | 407 kts | 327° |
| 2026-04-27 14:06 | -14.07584 | -6.85302 | 43461 ft | 408 kts | 327° |
| 2026-04-27 14:07 | -14.02737 | -6.88376 | 43613 ft | 410 kts | 327° |
| 2026-04-27 14:07 | -13.97905 | -6.91439 | 43760 ft | 411 kts | 327° |
| 2026-04-27 14:08 | -13.93023 | -6.94533 | 43918 ft | 413 kts | 327° |
| 2026-04-27 14:08 | -13.88124 | -6.97635 | 44053 ft | 414 kts | 327° |
| 2026-04-27 14:09 | -13.83193 | -7.00757 | 44047 ft | 417 kts | 327° |
| 2026-04-27 14:09 | -13.78280 | -7.03865 | 44046 ft | 413 kts | 327° |
| 2026-04-27 14:10 | -13.73367 | -7.06972 | 44050 ft | 416 kts | 327° |
| 2026-04-27 14:10 | -13.68415 | -7.10102 | 44046 ft | 420 kts | 327° |
| 2026-04-27 14:11 | -13.63421 | -7.13257 | 44050 ft | 423 kts | 327° |
| 2026-04-27 14:11 | -13.58389 | -7.16434 | 44050 ft | 427 kts | 327° |
| 2026-04-27 14:12 | -13.53346 | -7.19616 | 44046 ft | 423 kts | 327° |
| 2026-04-27 14:12 | -13.48344 | -7.22771 | 44038 ft | 423 kts | 327° |
| 2026-04-27 14:13 | -13.43310 | -7.25945 | 44046 ft | 426 kts | 327° |
| 2026-04-27 14:13 | -13.38259 | -7.29127 | 44045 ft | 424 kts | 327° |
| 2026-04-27 14:14 | -13.33248 | -7.32283 | 44034 ft | 422 kts | 327° |
| 2026-04-27 14:14 | -13.28218 | -7.35451 | 44032 ft | 426 kts | 327° |
| 2026-04-27 14:15 | -13.23192 | -7.38612 | 44039 ft | 425 kts | 327° |
| 2026-04-27 14:15 | -13.18173 | -7.41769 | 44030 ft | 422 kts | 327° |
| 2026-04-27 14:16 | -13.13146 | -7.44929 | 44033 ft | 425 kts | 327° |
| 2026-04-27 14:16 | -13.08085 | -7.48109 | 44034 ft | 426 kts | 327° |
| 2026-04-27 14:17 | -13.03054 | -7.51268 | 44035 ft | 422 kts | 327° |
| 2026-04-27 14:17 | -12.98031 | -7.54421 | 44030 ft | 425 kts | 327° |
| 2026-04-27 14:18 | -12.92973 | -7.57594 | 44029 ft | 427 kts | 327° |
| 2026-04-27 14:18 | -12.87936 | -7.60752 | 44028 ft | 422 kts | 328° |
| 2026-04-27 14:19 | -12.82927 | -7.63892 | 44022 ft | 423 kts | 327° |
| 2026-04-27 14:19 | -12.77886 | -7.67050 | 44020 ft | 426 kts | 328° |
| 2026-04-27 14:20 | -12.72820 | -7.70222 | 44022 ft | 426 kts | 328° |
| 2026-04-27 14:20 | -12.67782 | -7.73375 | 44020 ft | 423 kts | 328° |
| 2026-04-27 14:21 | -12.62759 | -7.76518 | 44018 ft | 424 kts | 328° |
| 2026-04-27 14:21 | -12.57704 | -7.79678 | 44017 ft | 427 kts | 328° |
| 2026-04-27 14:22 | -12.52639 | -7.82844 | 44015 ft | 426 kts | 328° |
| 2026-04-27 14:22 | -12.47607 | -7.85988 | 44009 ft | 422 kts | 328° |
| 2026-04-27 14:23 | -12.42567 | -7.89135 | 44010 ft | 425 kts | 328° |
| 2026-04-27 14:23 | -12.37506 | -7.92294 | 44011 ft | 428 kts | 328° |
| 2026-04-27 14:24 | -12.32423 | -7.95464 | 44008 ft | 426 kts | 328° |
| 2026-04-27 14:24 | -12.27384 | -7.98606 | 44004 ft | 424 kts | 328° |
| 2026-04-27 14:25 | -12.22335 | -8.01753 | 44001 ft | 426 kts | 328° |
| 2026-04-27 14:25 | -12.17254 | -8.04919 | 44003 ft | 428 kts | 328° |
| 2026-04-27 14:26 | -12.12184 | -8.08076 | 44005 ft | 426 kts | 328° |
| 2026-04-27 14:26 | -12.07139 | -8.11217 | 44000 ft | 424 kts | 328° |
| 2026-04-27 14:27 | -12.02078 | -8.14365 | 43997 ft | 427 kts | 328° |
| 2026-04-27 14:27 | -11.96984 | -8.17533 | 43995 ft | 430 kts | 328° |
| 2026-04-27 14:28 | -11.91891 | -8.20698 | 43996 ft | 427 kts | 328° |
| 2026-04-27 14:28 | -11.86867 | -8.23820 | 43989 ft | 426 kts | 328° |
| 2026-04-27 14:29 | -11.81785 | -8.26976 | 43990 ft | 429 kts | 328° |
| 2026-04-27 14:29 | -11.76677 | -8.30147 | 43993 ft | 429 kts | 328° |
| 2026-04-27 14:30 | -11.71600 | -8.33297 | 43988 ft | 426 kts | 328° |
| 2026-04-27 14:30 | -11.66527 | -8.36444 | 43990 ft | 428 kts | 328° |
| 2026-04-27 14:31 | -11.61423 | -8.39609 | 43994 ft | 431 kts | 328° |
| 2026-04-27 14:31 | -11.56308 | -8.42778 | 43991 ft | 428 kts | 328° |
| 2026-04-27 14:32 | -11.51242 | -8.45917 | 43981 ft | 427 kts | 328° |
| 2026-04-27 14:32 | -11.46147 | -8.49071 | 43981 ft | 430 kts | 328° |
| 2026-04-27 14:33 | -11.41019 | -8.52245 | 43989 ft | 431 kts | 328° |
| 2026-04-27 14:33 | -11.35912 | -8.55404 | 43983 ft | 427 kts | 328° |
| 2026-04-27 14:34 | -11.30830 | -8.58547 | 43980 ft | 428 kts | 328° |
| 2026-04-27 14:34 | -11.25716 | -8.61708 | 43981 ft | 431 kts | 328° |
| 2026-04-27 14:35 | -11.20584 | -8.64879 | 43981 ft | 430 kts | 328° |
| 2026-04-27 14:35 | -11.15527 | -8.68002 | 43973 ft | 427 kts | 328° |
| 2026-04-27 14:36 | -11.10403 | -8.71165 | 43975 ft | 430 kts | 328° |
| 2026-04-27 14:36 | -11.05276 | -8.74329 | 43983 ft | 431 kts | 328° |
| 2026-04-27 14:37 | -11.00212 | -8.77453 | 43981 ft | 426 kts | 328° |
| 2026-04-27 14:37 | -10.95139 | -8.80580 | 43973 ft | 427 kts | 328° |
| 2026-04-27 14:38 | -10.90033 | -8.83727 | 43976 ft | 430 kts | 328° |
| 2026-04-27 14:38 | -10.84932 | -8.86870 | 43974 ft | 426 kts | 328° |
| 2026-04-27 14:39 | -10.80697 | -8.89478 | 43968 ft | 426 kts | 328° |
| 2026-04-27 14:39 | -10.75611 | -8.92609 | 43969 ft | 429 kts | 328° |
| 2026-04-27 14:40 | -10.70546 | -8.95726 | 43975 ft | 426 kts | 328° |
| 2026-04-27 14:40 | -10.65497 | -8.98832 | 43967 ft | 422 kts | 328° |
| 2026-04-27 14:41 | -10.60452 | -9.01934 | 43967 ft | 425 kts | 329° |
| 2026-04-27 14:41 | -10.55376 | -9.05054 | 43969 ft | 426 kts | 329° |
| 2026-04-27 14:42 | -10.50334 | -9.08152 | 43966 ft | 422 kts | 329° |
| 2026-04-27 14:42 | -10.45314 | -9.11235 | 43961 ft | 422 kts | 329° |
| 2026-04-27 14:43 | -10.40266 | -9.14334 | 43962 ft | 425 kts | 329° |
| 2026-04-27 14:43 | -10.35209 | -9.17438 | 43967 ft | 423 kts | 329° |
| 2026-04-27 14:44 | -10.30189 | -9.20518 | 43960 ft | 421 kts | 329° |
| 2026-04-27 14:44 | -10.25157 | -9.23603 | 43956 ft | 424 kts | 329° |
| 2026-04-27 14:45 | -10.20090 | -9.26710 | 43964 ft | 426 kts | 329° |
| 2026-04-27 14:45 | -10.15039 | -9.29805 | 43962 ft | 423 kts | 329° |
| 2026-04-27 14:46 | -10.10009 | -9.32886 | 43960 ft | 424 kts | 329° |
| 2026-04-27 14:46 | -10.04938 | -9.35991 | 43962 ft | 427 kts | 329° |
| 2026-04-27 14:47 | -9.99854 | -9.39103 | 43961 ft | 425 kts | 329° |
| 2026-04-27 14:47 | -9.94803 | -9.42194 | 43953 ft | 424 kts | 329° |
| 2026-04-27 14:48 | -9.89768 | -9.45273 | 43955 ft | 427 kts | 329° |
| 2026-04-27 14:48 | -9.82111 | -9.49955 | 43958 ft | 427 kts | 329° |
| 2026-04-27 14:49 | -9.77037 | -9.53056 | 43955 ft | 425 kts | 329° |
| 2026-04-27 14:49 | -9.71960 | -9.56157 | 43954 ft | 428 kts | 330° |
| 2026-04-27 14:50 | -9.66850 | -9.59277 | 43954 ft | 430 kts | 330° |
| 2026-04-27 14:50 | -9.61741 | -9.62396 | 43955 ft | 427 kts | 330° |
| 2026-04-27 14:51 | -9.56658 | -9.65498 | 43950 ft | 427 kts | 330° |
| 2026-04-27 14:51 | -9.51551 | -9.68613 | 43955 ft | 430 kts | 330° |
| 2026-04-27 14:52 | -9.46429 | -9.71737 | 43950 ft | 428 kts | 329° |
| 2026-04-27 14:52 | -9.41341 | -9.74838 | 43951 ft | 425 kts | 329° |
| 2026-04-27 14:53 | -9.36258 | -9.77935 | 43946 ft | 428 kts | 329° |
| 2026-04-27 14:53 | -9.31144 | -9.81051 | 43949 ft | 429 kts | 329° |
| 2026-04-27 14:54 | -9.26078 | -9.84136 | 43942 ft | 426 kts | 329° |
| 2026-04-27 14:54 | -9.21010 | -9.87220 | 43941 ft | 425 kts | 329° |
| 2026-04-27 14:55 | -9.15928 | -9.90313 | 43942 ft | 428 kts | 329° |
| 2026-04-27 14:55 | -9.10822 | -9.93419 | 43945 ft | 428 kts | 329° |
| 2026-04-27 14:56 | -9.05731 | -9.96515 | 43947 ft | 425 kts | 329° |
| 2026-04-27 14:56 | -9.00685 | -9.99626 | 43945 ft | 427 kts | 326° |
| 2026-04-27 14:57 | -8.96181 | -10.03571 | 43957 ft | 430 kts | 319° |
| 2026-04-27 14:57 | -8.91758 | -10.07676 | 43948 ft | 432 kts | 319° |
| 2026-04-27 14:58 | -8.87360 | -10.11781 | 43953 ft | 428 kts | 319° |
| 2026-04-27 14:58 | -8.82976 | -10.15861 | 43947 ft | 429 kts | 319° |
| 2026-04-27 14:59 | -8.78567 | -10.19967 | 43949 ft | 432 kts | 319° |
| 2026-04-27 14:59 | -8.74137 | -10.24090 | 43949 ft | 433 kts | 319° |
| 2026-04-27 15:00 | -8.69718 | -10.28202 | 43951 ft | 430 kts | 319° |
| 2026-04-27 15:00 | -8.65341 | -10.32242 | 43943 ft | 430 kts | 322° |
| 2026-04-27 15:01 | -8.62866 | -10.33930 | 43948 ft | 429 kts | 333° |
| 2026-04-27 15:01 | -8.60108 | -10.35083 | 43943 ft | 430 kts | 344° |
| 2026-04-27 15:01 | -8.57169 | -10.35655 | 43947 ft | 432 kts | 355° |
| 2026-04-27 15:01 | -8.54161 | -10.35744 | 43947 ft | 433 kts | 359° |
| 2026-04-27 15:02 | -8.48260 | -10.36611 | 43945 ft | 429 kts | 341° |
| 2026-04-27 15:02 | -8.42738 | -10.38872 | 43938 ft | 430 kts | 336° |
| 2026-04-27 15:03 | -8.37301 | -10.41444 | 43952 ft | 433 kts | 335° |
| 2026-04-27 15:03 | -8.31876 | -10.44077 | 43944 ft | 431 kts | 335° |
| 2026-04-27 15:04 | -8.26497 | -10.46704 | 43943 ft | 428 kts | 335° |
| 2026-04-27 15:04 | -8.21115 | -10.49336 | 43937 ft | 431 kts | 335° |
| 2026-04-27 15:05 | -8.15695 | -10.51987 | 43944 ft | 434 kts | 335° |
| 2026-04-27 15:05 | -8.10231 | -10.54598 | 43942 ft | 433 kts | 338° |
| 2026-04-27 15:06 | -8.04702 | -10.56950 | 43939 ft | 431 kts | 335° |
| 2026-04-27 15:06 | -7.99525 | -10.60042 | 43940 ft | 435 kts | 327° |
| 2026-04-27 15:07 | -7.94407 | -10.63246 | 43944 ft | 437 kts | 332° |
| 2026-04-27 15:07 | -7.89112 | -10.66292 | 43946 ft | 438 kts | 329° |
| 2026-04-27 15:08 | -7.83914 | -10.69464 | 43942 ft | 435 kts | 330° |
| 2026-04-27 15:08 | -7.78682 | -10.72538 | 43937 ft | 437 kts | 330° |
| 2026-04-27 15:09 | -7.73430 | -10.75693 | 43941 ft | 440 kts | 330° |
| 2026-04-27 15:09 | -7.68137 | -10.78832 | 43936 ft | 442 kts | 330° |
| 2026-04-27 15:10 | -7.62860 | -10.81982 | 43939 ft | 439 kts | 330° |
| 2026-04-27 15:10 | -7.57598 | -10.85110 | 43933 ft | 440 kts | 330° |
| 2026-04-27 15:11 | -7.52305 | -10.88262 | 43929 ft | 443 kts | 330° |
| 2026-04-27 15:11 | -7.46987 | -10.91426 | 43936 ft | 443 kts | 330° |
| 2026-04-27 15:12 | -7.41679 | -10.94583 | 43936 ft | 443 kts | 330° |
| 2026-04-27 15:12 | -7.36362 | -10.97744 | 43935 ft | 444 kts | 330° |
| 2026-04-27 15:13 | -7.31062 | -11.00896 | 43932 ft | 441 kts | 330° |
| 2026-04-27 15:13 | -7.25837 | -11.04000 | 43928 ft | 438 kts | 330° |
| 2026-04-27 15:14 | -7.20573 | -11.07128 | 43933 ft | 441 kts | 330° |
| 2026-04-27 15:14 | -7.15275 | -11.10275 | 43936 ft | 442 kts | 330° |
| 2026-04-27 15:15 | -7.09997 | -11.13409 | 43931 ft | 438 kts | 330° |
| 2026-04-27 15:15 | -7.04755 | -11.16521 | 43926 ft | 438 kts | 330° |
| 2026-04-27 15:16 | -6.99489 | -11.19646 | 43926 ft | 441 kts | 330° |
| 2026-04-27 15:16 | -6.94193 | -11.22788 | 43931 ft | 441 kts | 330° |
| 2026-04-27 15:17 | -6.88925 | -11.25914 | 43933 ft | 438 kts | 330° |
| 2026-04-27 15:17 | -6.83686 | -11.29020 | 43915 ft | 439 kts | 330° |
| 2026-04-27 15:18 | -6.78410 | -11.32148 | 43927 ft | 442 kts | 330° |
| 2026-04-27 15:18 | -6.73111 | -11.35289 | 43932 ft | 441 kts | 330° |
| 2026-04-27 15:19 | -6.67843 | -11.38411 | 43930 ft | 438 kts | 330° |
| 2026-04-27 15:19 | -6.62624 | -11.41502 | 43929 ft | 439 kts | 330° |
| 2026-04-27 15:20 | -6.57338 | -11.44634 | 43927 ft | 442 kts | 330° |
| 2026-04-27 15:20 | -6.52046 | -11.47767 | 43932 ft | 440 kts | 330° |
| 2026-04-27 15:21 | -6.46784 | -11.50882 | 43934 ft | 439 kts | 329° |
| 2026-04-27 15:21 | -6.41513 | -11.54001 | 43930 ft | 440 kts | 329° |
| 2026-04-27 15:22 | -6.36248 | -11.57117 | 43932 ft | 439 kts | 329° |
| 2026-04-27 15:22 | -6.30964 | -11.60242 | 43929 ft | 442 kts | 329° |
| 2026-04-27 15:23 | -6.25657 | -11.63381 | 43929 ft | 442 kts | 329° |
| 2026-04-27 15:23 | -6.20373 | -11.66506 | 43934 ft | 439 kts | 329° |
| 2026-04-27 15:24 | -6.15110 | -11.69617 | 43917 ft | 440 kts | 329° |
| 2026-04-27 15:24 | -6.09823 | -11.72741 | 43922 ft | 442 kts | 329° |
| 2026-04-27 15:25 | -6.04523 | -11.75873 | 43926 ft | 441 kts | 329° |
| 2026-04-27 15:25 | -5.99248 | -11.78989 | 43919 ft | 439 kts | 329° |
| 2026-04-27 15:26 | -5.93976 | -11.82102 | 43929 ft | 440 kts | 329° |
| 2026-04-27 15:26 | -5.88700 | -11.85218 | 43921 ft | 439 kts | 329° |
| 2026-04-27 15:27 | -5.83427 | -11.88330 | 43922 ft | 441 kts | 330° |
| 2026-04-27 15:27 | -5.78177 | -11.91429 | 43928 ft | 440 kts | 330° |
| 2026-04-27 15:28 | -5.72872 | -11.94559 | 43921 ft | 439 kts | 330° |
| 2026-04-27 15:28 | -5.67623 | -11.97656 | 43925 ft | 442 kts | 330° |
| 2026-04-27 15:29 | -5.62317 | -12.00785 | 43929 ft | 442 kts | 330° |
| 2026-04-27 15:29 | -5.57022 | -12.03907 | 43928 ft | 442 kts | 330° |
| 2026-04-27 15:30 | -5.51722 | -12.07032 | 43931 ft | 443 kts | 330° |
| 2026-04-27 15:30 | -5.47278 | -12.09652 | 43930 ft | 441 kts | 330° |
| 2026-04-27 15:31 | -5.42005 | -12.12760 | 43927 ft | 438 kts | 330° |
| 2026-04-27 15:31 | -5.36732 | -12.15866 | 43922 ft | 441 kts | 330° |
| 2026-04-27 15:32 | -5.31425 | -12.18993 | 43930 ft | 442 kts | 330° |
| 2026-04-27 15:32 | -5.26173 | -12.22086 | 43927 ft | 439 kts | 330° |
| 2026-04-27 15:33 | -5.20910 | -12.25185 | 43927 ft | 439 kts | 330° |
| 2026-04-27 15:33 | -5.15616 | -12.28301 | 43929 ft | 443 kts | 330° |
| 2026-04-27 15:34 | -5.10318 | -12.31421 | 43929 ft | 440 kts | 330° |
| 2026-04-27 15:34 | -5.05048 | -12.34522 | 43933 ft | 437 kts | 330° |
| 2026-04-27 15:35 | -4.99788 | -12.37616 | 43928 ft | 440 kts | 330° |
| 2026-04-27 15:35 | -4.94493 | -12.40732 | 43930 ft | 441 kts | 330° |
| 2026-04-27 15:36 | -4.89219 | -12.43834 | 43928 ft | 438 kts | 330° |
| 2026-04-27 15:36 | -4.83963 | -12.46924 | 43921 ft | 440 kts | 330° |
| 2026-04-27 15:37 | -4.78663 | -12.50041 | 43916 ft | 443 kts | 330° |
| 2026-04-27 15:37 | -4.73352 | -12.53163 | 43915 ft | 441 kts | 330° |
| 2026-04-27 15:38 | -4.68078 | -12.56263 | 43921 ft | 439 kts | 330° |
| 2026-04-27 15:38 | -4.62789 | -12.59371 | 43925 ft | 442 kts | 330° |
| 2026-04-27 15:39 | -4.57501 | -12.62477 | 43924 ft | 444 kts | 330° |
| 2026-04-27 15:39 | -4.52192 | -12.65597 | 43924 ft | 441 kts | 330° |
| 2026-04-27 15:40 | -4.46904 | -12.68702 | 43921 ft | 441 kts | 330° |
| 2026-04-27 15:40 | -4.41589 | -12.71824 | 43911 ft | 444 kts | 330° |
| 2026-04-27 15:41 | -4.36267 | -12.74949 | 43928 ft | 442 kts | 330° |
| 2026-04-27 15:41 | -4.30977 | -12.78053 | 43922 ft | 439 kts | 330° |
| 2026-04-27 15:42 | -4.25684 | -12.81160 | 43926 ft | 443 kts | 330° |
| 2026-04-27 15:42 | -4.20356 | -12.84288 | 43932 ft | 443 kts | 330° |
| 2026-04-27 15:43 | -4.15056 | -12.87397 | 43932 ft | 440 kts | 330° |
| 2026-04-27 15:43 | -4.09786 | -12.90489 | 43921 ft | 439 kts | 330° |
| 2026-04-27 15:44 | -4.04487 | -12.93597 | 43923 ft | 443 kts | 330° |
| 2026-04-27 15:44 | -3.99213 | -12.96691 | 43928 ft | 441 kts | 330° |
| 2026-04-27 15:45 | -3.93931 | -12.99788 | 43931 ft | 439 kts | 330° |
| 2026-04-27 15:45 | -3.88659 | -13.02879 | 43923 ft | 441 kts | 330° |
| 2026-04-27 15:46 | -3.83366 | -13.05981 | 43924 ft | 441 kts | 330° |
| 2026-04-27 15:46 | -3.78079 | -13.09081 | 43925 ft | 440 kts | 329° |
| 2026-04-27 15:47 | -3.72808 | -13.12170 | 43927 ft | 438 kts | 329° |
| 2026-04-27 15:47 | -3.67524 | -13.15266 | 43929 ft | 442 kts | 329° |
| 2026-04-27 15:48 | -3.62213 | -13.18378 | 43924 ft | 442 kts | 329° |
| 2026-04-27 15:49 | -3.54272 | -13.23030 | 43923 ft | 441 kts | 329° |
| 2026-04-27 15:49 | -3.48959 | -13.26141 | 43937 ft | 444 kts | 329° |
| 2026-04-27 15:50 | -3.43636 | -13.29259 | 43924 ft | 442 kts | 329° |
| 2026-04-27 15:50 | -3.38329 | -13.32366 | 43914 ft | 442 kts | 329° |
| 2026-04-27 15:51 | -3.33003 | -13.35484 | 43920 ft | 444 kts | 329° |
| 2026-04-27 15:51 | -3.27675 | -13.38603 | 43934 ft | 443 kts | 329° |
| 2026-04-27 15:52 | -3.22346 | -13.41722 | 43919 ft | 444 kts | 329° |
| 2026-04-27 15:52 | -3.17004 | -13.44849 | 43924 ft | 446 kts | 329° |
| 2026-04-27 15:53 | -3.11626 | -13.47996 | 43926 ft | 448 kts | 329° |
| 2026-04-27 15:53 | -3.06272 | -13.51128 | 43927 ft | 448 kts | 329° |
| 2026-04-27 15:54 | -3.00893 | -13.54275 | 43916 ft | 450 kts | 329° |
| 2026-04-27 15:54 | -2.95468 | -13.57449 | 43915 ft | 453 kts | 329° |
| 2026-04-27 15:55 | -2.90014 | -13.60638 | 43926 ft | 453 kts | 329° |
| 2026-04-27 15:55 | -2.84582 | -13.63816 | 43929 ft | 451 kts | 329° |
| 2026-04-27 15:56 | -2.79171 | -13.66980 | 43919 ft | 450 kts | 329° |
| 2026-04-27 15:56 | -2.73743 | -13.70154 | 43916 ft | 454 kts | 329° |
| 2026-04-27 15:57 | -2.68299 | -13.73336 | 43928 ft | 451 kts | 329° |
| 2026-04-27 15:57 | -2.62897 | -13.76494 | 43926 ft | 449 kts | 329° |
| 2026-04-27 15:58 | -2.57490 | -13.79655 | 43925 ft | 451 kts | 329° |
| 2026-04-27 15:58 | -2.52075 | -13.82820 | 43921 ft | 450 kts | 329° |
| 2026-04-27 15:59 | -2.46672 | -13.85977 | 43929 ft | 449 kts | 329° |
| 2026-04-27 15:59 | -2.41255 | -13.89144 | 43921 ft | 453 kts | 329° |
| 2026-04-27 16:00 | -2.35794 | -13.92334 | 43913 ft | 456 kts | 329° |
| 2026-04-27 16:00 | -2.30347 | -13.95517 | 43915 ft | 457 kts | 329° |
| 2026-04-27 16:01 | -2.24868 | -13.98717 | 43927 ft | 456 kts | 329° |
| 2026-04-27 16:01 | -2.19368 | -14.01930 | 43929 ft | 460 kts | 329° |
| 2026-04-27 16:02 | -2.13819 | -14.05172 | 43926 ft | 464 kts | 329° |
| 2026-04-27 16:02 | -2.08224 | -14.08438 | 43930 ft | 466 kts | 329° |
| 2026-04-27 16:03 | -2.02628 | -14.11708 | 43921 ft | 466 kts | 329° |
| 2026-04-27 16:03 | -1.97024 | -14.14979 | 43930 ft | 467 kts | 329° |
| 2026-04-27 16:04 | -1.91404 | -14.18261 | 43933 ft | 468 kts | 329° |
| 2026-04-27 16:04 | -1.85799 | -14.21534 | 43931 ft | 465 kts | 330° |
| 2026-04-27 16:05 | -1.80221 | -14.24790 | 43924 ft | 465 kts | 330° |
| 2026-04-27 16:05 | -1.74611 | -14.28065 | 43926 ft | 469 kts | 330° |
| 2026-04-27 16:06 | -1.68968 | -14.31359 | 43927 ft | 469 kts | 330° |
| 2026-04-27 16:06 | -1.63395 | -14.34612 | 43919 ft | 466 kts | 330° |
| 2026-04-27 16:07 | -1.57775 | -14.37892 | 43923 ft | 470 kts | 330° |
| 2026-04-27 16:07 | -1.52103 | -14.41202 | 43927 ft | 467 kts | 330° |
| 2026-04-27 16:08 | -1.46554 | -14.44440 | 43927 ft | 464 kts | 330° |
| 2026-04-27 16:08 | -1.40993 | -14.47686 | 43923 ft | 464 kts | 330° |
| 2026-04-27 16:09 | -1.35403 | -14.50948 | 43928 ft | 465 kts | 330° |
| 2026-04-27 16:09 | -1.27089 | -14.55798 | 43926 ft | 459 kts | 330° |
| 2026-04-27 16:10 | -1.15991 | -14.62274 | 43927 ft | 460 kts | 330° |
| 2026-04-27 16:11 | -1.07717 | -14.67101 | 43924 ft | 461 kts | 330° |
| 2026-04-27 16:12 | -0.99394 | -14.71956 | 43929 ft | 460 kts | 330° |
| 2026-04-27 16:13 | -0.91123 | -14.76780 | 43925 ft | 460 kts | 329° |
| 2026-04-27 16:13 | -0.82832 | -14.81616 | 43924 ft | 459 kts | 330° |
| 2026-04-27 16:14 | -0.71831 | -14.88032 | 43924 ft | 462 kts | 329° |
| 2026-04-27 16:15 | -0.60741 | -14.94500 | 43929 ft | 459 kts | 329° |
| 2026-04-27 16:16 | -0.49636 | -15.00976 | 43926 ft | 465 kts | 329° |
| 2026-04-27 16:17 | -0.38502 | -15.07470 | 43929 ft | 464 kts | 329° |
| 2026-04-27 16:18 | -0.28265 | -15.13439 | 43930 ft | 463 kts | 330° |
| 2026-04-27 16:19 | -0.22708 | -15.16679 | 43922 ft | 464 kts | 330° |
| 2026-04-27 16:20 | -0.11528 | -15.23199 | 43932 ft | 462 kts | 330° |
| 2026-04-27 16:21 | -0.03202 | -15.28054 | 43922 ft | 465 kts | 330° |
| 2026-04-27 16:22 | 0.07914 | -15.34536 | 43920 ft | 459 kts | 330° |
| 2026-04-27 16:22 | 0.16223 | -15.39381 | 43931 ft | 463 kts | 330° |
| 2026-04-27 16:23 | 0.24507 | -15.44212 | 43922 ft | 456 kts | 330° |
| 2026-04-27 16:24 | 0.29982 | -15.47404 | 43916 ft | 461 kts | 330° |
| 2026-04-27 16:25 | 0.40985 | -15.53821 | 43920 ft | 455 kts | 330° |
| 2026-04-27 16:26 | 0.51998 | -15.60243 | 43923 ft | 458 kts | 330° |
| 2026-04-27 16:27 | 0.62981 | -15.66648 | 43930 ft | 460 kts | 330° |
| 2026-04-27 16:28 | 0.76767 | -15.74688 | 43923 ft | 459 kts | 330° |
| 2026-04-27 16:29 | 0.90611 | -15.82763 | 43933 ft | 458 kts | 330° |
| 2026-04-27 16:30 | 1.01641 | -15.89197 | 43934 ft | 462 kts | 330° |
| 2026-04-27 16:31 | 1.15455 | -15.97256 | 43938 ft | 462 kts | 330° |
| 2026-04-27 16:32 | 1.23759 | -16.02101 | 43924 ft | 458 kts | 330° |
| 2026-04-27 16:33 | 1.32011 | -16.06915 | 43925 ft | 460 kts | 330° |
| 2026-04-27 16:33 | 1.37555 | -16.10150 | 43923 ft | 461 kts | 331° |
| 2026-04-27 16:34 | 1.43066 | -16.13366 | 43916 ft | 457 kts | 331° |
| 2026-04-27 16:34 | 1.48560 | -16.16571 | 43915 ft | 459 kts | 331° |
| 2026-04-27 16:35 | 1.54090 | -16.19799 | 43918 ft | 459 kts | 331° |
| 2026-04-27 16:36 | 1.62334 | -16.24611 | 43922 ft | 455 kts | 331° |
| 2026-04-27 16:36 | 1.67827 | -16.27816 | 43917 ft | 460 kts | 331° |
| 2026-04-27 16:37 | 1.73356 | -16.31045 | 43933 ft | 459 kts | 331° |
| 2026-04-27 16:37 | 1.78847 | -16.34250 | 43929 ft | 455 kts | 331° |
| 2026-04-27 16:38 | 1.84305 | -16.37436 | 43930 ft | 460 kts | 331° |
| 2026-04-27 16:38 | 1.89832 | -16.40663 | 43936 ft | 459 kts | 331° |
| 2026-04-27 16:39 | 1.95323 | -16.43869 | 43933 ft | 456 kts | 331° |
| 2026-04-27 16:39 | 2.00821 | -16.47079 | 43918 ft | 460 kts | 331° |
| 2026-04-27 16:40 | 2.06357 | -16.50313 | 43923 ft | 460 kts | 331° |
| 2026-04-27 16:40 | 2.11856 | -16.53524 | 43926 ft | 456 kts | 331° |
| 2026-04-27 16:41 | 2.17356 | -16.56736 | 43919 ft | 460 kts | 331° |
| 2026-04-27 16:41 | 2.22885 | -16.59967 | 43915 ft | 458 kts | 331° |
| 2026-04-27 16:42 | 2.28366 | -16.63168 | 43931 ft | 456 kts | 331° |
| 2026-04-27 16:42 | 2.33866 | -16.66381 | 43929 ft | 461 kts | 331° |
| 2026-04-27 16:43 | 2.39385 | -16.69607 | 43920 ft | 458 kts | 331° |
| 2026-04-27 16:43 | 2.44865 | -16.72808 | 43915 ft | 455 kts | 331° |
| 2026-04-27 16:44 | 2.50364 | -16.76021 | 43925 ft | 460 kts | 331° |
| 2026-04-27 16:44 | 2.55848 | -16.79227 | 43929 ft | 457 kts | 331° |
| 2026-04-27 16:45 | 2.61320 | -16.82425 | 43921 ft | 455 kts | 331° |
| 2026-04-27 16:45 | 2.66820 | -16.85640 | 43928 ft | 459 kts | 331° |
| 2026-04-27 16:46 | 2.72316 | -16.88854 | 43928 ft | 456 kts | 331° |
| 2026-04-27 16:46 | 2.77770 | -16.92043 | 43917 ft | 454 kts | 331° |
| 2026-04-27 16:47 | 2.83248 | -16.95245 | 43927 ft | 458 kts | 331° |
| 2026-04-27 16:47 | 2.88730 | -16.98452 | 43927 ft | 454 kts | 331° |
| 2026-04-27 16:48 | 2.94181 | -17.01640 | 43918 ft | 455 kts | 331° |
| 2026-04-27 16:48 | 2.99677 | -17.04855 | 43921 ft | 460 kts | 330° |
| 2026-04-27 16:49 | 3.07925 | -17.09681 | 43917 ft | 455 kts | 330° |
| 2026-04-27 16:49 | 3.13408 | -17.12889 | 43920 ft | 459 kts | 330° |
| 2026-04-27 16:50 | 3.18944 | -17.16128 | 43932 ft | 461 kts | 330° |
| 2026-04-27 16:50 | 3.24467 | -17.19361 | 43931 ft | 458 kts | 330° |
| 2026-04-27 16:51 | 3.29931 | -17.22559 | 43919 ft | 459 kts | 330° |
| 2026-04-27 16:51 | 3.35504 | -17.25822 | 43928 ft | 463 kts | 330° |
| 2026-04-27 16:52 | 3.41039 | -17.29063 | 43930 ft | 459 kts | 330° |
| 2026-04-27 16:52 | 3.46540 | -17.32284 | 43919 ft | 458 kts | 330° |
| 2026-04-27 16:53 | 3.52039 | -17.35504 | 43928 ft | 463 kts | 330° |
| 2026-04-27 16:53 | 3.57575 | -17.38747 | 43929 ft | 459 kts | 330° |
| 2026-04-27 16:54 | 3.63073 | -17.41968 | 43930 ft | 459 kts | 330° |
| 2026-04-27 16:54 | 3.68627 | -17.45222 | 43920 ft | 466 kts | 330° |
| 2026-04-27 16:55 | 3.74221 | -17.48501 | 43932 ft | 464 kts | 330° |
| 2026-04-27 16:55 | 3.79771 | -17.51753 | 43925 ft | 461 kts | 330° |
| 2026-04-27 16:56 | 3.85337 | -17.55016 | 43929 ft | 466 kts | 330° |
| 2026-04-27 16:56 | 3.90906 | -17.58281 | 43931 ft | 462 kts | 330° |
| 2026-04-27 16:57 | 3.96440 | -17.61525 | 43927 ft | 460 kts | 330° |
| 2026-04-27 16:57 | 4.02000 | -17.64786 | 43927 ft | 465 kts | 330° |
| 2026-04-27 16:58 | 4.07567 | -17.68052 | 43931 ft | 461 kts | 330° |
| 2026-04-27 16:58 | 4.13093 | -17.71293 | 43925 ft | 461 kts | 330° |
| 2026-04-27 16:59 | 4.18664 | -17.74562 | 43931 ft | 464 kts | 330° |
| 2026-04-27 16:59 | 4.24211 | -17.77817 | 43930 ft | 460 kts | 330° |
| 2026-04-27 17:00 | 4.32515 | -17.82691 | 43928 ft | 464 kts | 330° |
| 2026-04-27 17:01 | 4.38066 | -17.85950 | 43931 ft | 460 kts | 330° |
| 2026-04-27 17:01 | 4.43581 | -17.89188 | 43925 ft | 461 kts | 330° |
| 2026-04-27 17:02 | 4.49145 | -17.92456 | 43927 ft | 463 kts | 330° |
| 2026-04-27 17:02 | 4.54639 | -17.95683 | 43922 ft | 459 kts | 330° |
| 2026-04-27 17:03 | 4.60162 | -17.98927 | 43926 ft | 463 kts | 330° |
| 2026-04-27 17:03 | 4.65723 | -18.02195 | 43929 ft | 461 kts | 330° |
| 2026-04-27 17:04 | 4.71238 | -18.05436 | 43930 ft | 459 kts | 330° |
| 2026-04-27 17:04 | 4.76781 | -18.08694 | 43930 ft | 464 kts | 330° |
| 2026-04-27 17:05 | 4.82330 | -18.11957 | 43933 ft | 460 kts | 330° |
| 2026-04-27 17:05 | 4.87838 | -18.15196 | 43928 ft | 460 kts | 330° |
| 2026-04-27 17:06 | 4.93386 | -18.18459 | 43928 ft | 462 kts | 330° |
| 2026-04-27 17:06 | 4.98903 | -18.21705 | 43926 ft | 458 kts | 330° |
| 2026-04-27 17:07 | 5.04415 | -18.24948 | 43933 ft | 462 kts | 330° |
| 2026-04-27 17:07 | 5.09956 | -18.28209 | 43929 ft | 460 kts | 330° |
| 2026-04-27 17:08 | 5.14523 | -18.30897 | 43921 ft | 457 kts | 330° |
| 2026-04-27 17:08 | 5.20035 | -18.34142 | 43926 ft | 461 kts | 330° |
| 2026-04-27 17:09 | 5.25561 | -18.37396 | 43924 ft | 460 kts | 330° |
| 2026-04-27 17:09 | 5.31072 | -18.40641 | 43926 ft | 459 kts | 330° |
| 2026-04-27 17:10 | 5.36575 | -18.43883 | 43927 ft | 458 kts | 330° |
| 2026-04-27 17:10 | 5.42066 | -18.47119 | 43924 ft | 457 kts | 330° |
| 2026-04-27 17:11 | 5.47546 | -18.50349 | 43917 ft | 457 kts | 330° |
| 2026-04-27 17:11 | 5.55820 | -18.55225 | 43930 ft | 460 kts | 330° |
| 2026-04-27 17:12 | 5.64049 | -18.60078 | 43928 ft | 456 kts | 330° |
| 2026-04-27 17:13 | 5.69552 | -18.63324 | 43929 ft | 461 kts | 330° |
| 2026-04-27 17:13 | 5.75061 | -18.66575 | 43914 ft | 457 kts | 330° |
| 2026-04-27 17:14 | 5.80533 | -18.69803 | 43920 ft | 458 kts | 330° |
| 2026-04-27 17:14 | 5.86019 | -18.73041 | 43926 ft | 461 kts | 330° |
| 2026-04-27 17:15 | 5.91519 | -18.76289 | 43925 ft | 457 kts | 330° |
| 2026-04-27 17:15 | 5.97014 | -18.79534 | 43921 ft | 460 kts | 330° |
| 2026-04-27 17:16 | 6.02541 | -18.82798 | 43927 ft | 461 kts | 330° |
| 2026-04-27 17:16 | 6.08054 | -18.86055 | 43932 ft | 458 kts | 330° |
| 2026-04-27 17:17 | 6.13528 | -18.89290 | 43929 ft | 455 kts | 330° |
| 2026-04-27 17:17 | 6.18974 | -18.92510 | 43925 ft | 453 kts | 330° |
| 2026-04-27 17:18 | 6.27133 | -18.97333 | 43933 ft | 455 kts | 330° |
| 2026-04-27 17:18 | 6.32582 | -19.00556 | 43938 ft | 453 kts | 330° |
| 2026-04-27 17:19 | 6.37987 | -19.03754 | 43932 ft | 449 kts | 330° |
| 2026-04-27 17:19 | 6.43391 | -19.06951 | 43930 ft | 452 kts | 330° |
| 2026-04-27 17:20 | 6.48805 | -19.10156 | 43937 ft | 451 kts | 330° |
| 2026-04-27 17:20 | 6.54204 | -19.13352 | 43927 ft | 450 kts | 330° |
| 2026-04-27 17:21 | 6.59615 | -19.16556 | 43925 ft | 452 kts | 330° |
| 2026-04-27 17:21 | 6.65045 | -19.19773 | 43939 ft | 454 kts | 330° |
| 2026-04-27 17:22 | 6.70441 | -19.22971 | 43939 ft | 452 kts | 330° |
| 2026-04-27 17:22 | 6.75867 | -19.26186 | 43943 ft | 453 kts | 330° |
| 2026-04-27 17:23 | 6.81306 | -19.29410 | 43943 ft | 454 kts | 330° |
| 2026-04-27 17:23 | 6.86744 | -19.32635 | 43936 ft | 453 kts | 330° |
| 2026-04-27 17:24 | 6.92158 | -19.35846 | 43931 ft | 451 kts | 330° |
| 2026-04-27 17:24 | 6.97600 | -19.39075 | 43933 ft | 456 kts | 330° |
| 2026-04-27 17:25 | 7.03054 | -19.42311 | 43943 ft | 454 kts | 329° |
| 2026-04-27 17:25 | 7.08476 | -19.45530 | 43942 ft | 452 kts | 329° |
| 2026-04-27 17:26 | 7.13915 | -19.48759 | 43933 ft | 455 kts | 329° |
| 2026-04-27 17:26 | 7.19364 | -19.51996 | 43938 ft | 455 kts | 329° |
| 2026-04-27 17:27 | 7.24806 | -19.55228 | 43936 ft | 454 kts | 329° |
| 2026-04-27 17:27 | 7.30247 | -19.58463 | 43941 ft | 454 kts | 329° |
| 2026-04-27 17:28 | 7.35682 | -19.61693 | 43934 ft | 453 kts | 329° |
| 2026-04-27 17:29 | 7.43826 | -19.66536 | 43933 ft | 454 kts | 329° |
| 2026-04-27 17:29 | 7.49269 | -19.69774 | 43935 ft | 456 kts | 329° |
| 2026-04-27 17:30 | 7.54736 | -19.73027 | 43941 ft | 456 kts | 329° |
| 2026-04-27 17:30 | 7.62890 | -19.77881 | 43931 ft | 452 kts | 329° |
| 2026-04-27 17:31 | 7.68324 | -19.81116 | 43937 ft | 456 kts | 329° |
| 2026-04-27 17:31 | 7.73785 | -19.84370 | 43952 ft | 454 kts | 329° |
| 2026-04-27 17:32 | 7.81920 | -19.89217 | 43948 ft | 455 kts | 329° |
| 2026-04-27 17:33 | 7.87377 | -19.92470 | 43935 ft | 454 kts | 329° |
| 2026-04-27 17:33 | 7.92760 | -19.95680 | 43936 ft | 450 kts | 329° |
| 2026-04-27 17:34 | 7.98182 | -19.98914 | 43950 ft | 457 kts | 329° |
| 2026-04-27 17:34 | 8.03693 | -20.02161 | 43951 ft | 459 kts | 330° |
| 2026-04-27 17:35 | 8.09233 | -20.05321 | 43955 ft | 456 kts | 330° |
| 2026-04-27 17:35 | 8.14718 | -20.08520 | 43946 ft | 458 kts | 330° |
| 2026-04-27 17:36 | 8.20270 | -20.11717 | 43950 ft | 459 kts | 330° |
| 2026-04-27 17:36 | 8.25793 | -20.14921 | 43944 ft | 457 kts | 330° |
| 2026-04-27 17:37 | 8.31297 | -20.18104 | 43944 ft | 455 kts | 330° |
| 2026-04-27 17:37 | 8.36803 | -20.21295 | 43951 ft | 459 kts | 330° |
| 2026-04-27 17:38 | 8.42352 | -20.24509 | 43956 ft | 459 kts | 330° |
| 2026-04-27 17:38 | 8.47879 | -20.27712 | 43954 ft | 457 kts | 330° |
| 2026-04-27 17:39 | 8.53387 | -20.30905 | 43956 ft | 457 kts | 329° |
| 2026-04-27 17:39 | 8.58925 | -20.34117 | 43951 ft | 461 kts | 329° |
| 2026-04-27 17:40 | 8.64471 | -20.37334 | 43948 ft | 459 kts | 329° |
| 2026-04-27 17:40 | 8.69971 | -20.40527 | 43951 ft | 458 kts | 329° |
| 2026-04-27 17:41 | 8.75482 | -20.43725 | 43950 ft | 457 kts | 329° |
| 2026-04-27 17:41 | 8.81005 | -20.46934 | 43956 ft | 460 kts | 329° |
| 2026-04-27 17:42 | 8.86563 | -20.50162 | 43943 ft | 460 kts | 329° |
| 2026-04-27 17:42 | 8.92101 | -20.53380 | 43958 ft | 458 kts | 329° |
| 2026-04-27 17:43 | 8.97621 | -20.56589 | 43940 ft | 457 kts | 329° |
| 2026-04-27 17:43 | 9.03152 | -20.59806 | 43962 ft | 461 kts | 329° |
| 2026-04-27 17:44 | 9.08717 | -20.63044 | 43964 ft | 460 kts | 329° |
| 2026-04-27 17:44 | 9.14249 | -20.66263 | 43946 ft | 457 kts | 329° |
| 2026-04-27 17:45 | 9.19771 | -20.69478 | 43957 ft | 460 kts | 329° |
| 2026-04-27 17:45 | 9.25333 | -20.72716 | 43966 ft | 461 kts | 329° |
| 2026-04-27 17:46 | 9.30876 | -20.75947 | 43961 ft | 458 kts | 329° |
| 2026-04-27 17:46 | 9.36395 | -20.79163 | 43956 ft | 457 kts | 329° |
| 2026-04-27 17:47 | 9.41900 | -20.82372 | 43954 ft | 459 kts | 329° |
| 2026-04-27 17:47 | 9.47452 | -20.85612 | 43957 ft | 460 kts | 328° |
| 2026-04-27 17:48 | 9.52949 | -20.88817 | 43964 ft | 457 kts | 329° |
| 2026-04-27 17:48 | 9.58447 | -20.92029 | 43961 ft | 457 kts | 329° |
| 2026-04-27 17:49 | 9.63969 | -20.95251 | 43960 ft | 459 kts | 328° |
| 2026-04-27 17:49 | 9.69487 | -20.98476 | 43956 ft | 457 kts | 328° |
| 2026-04-27 17:50 | 9.74996 | -21.01694 | 43955 ft | 457 kts | 328° |
| 2026-04-27 17:50 | 9.83270 | -21.06533 | 43966 ft | 459 kts | 328° |
| 2026-04-27 17:51 | 9.88791 | -21.09760 | 43971 ft | 456 kts | 328° |
| 2026-04-27 17:51 | 9.94284 | -21.12975 | 43956 ft | 455 kts | 328° |
| 2026-04-27 17:52 | 9.99772 | -21.16188 | 43955 ft | 456 kts | 328° |
| 2026-04-27 17:52 | 10.04337 | -21.18862 | 43968 ft | 457 kts | 328° |
| 2026-04-27 17:53 | 10.10754 | -21.22620 | 43963 ft | 454 kts | 328° |
| 2026-04-27 17:53 | 10.16218 | -21.25823 | 43966 ft | 453 kts | 328° |
| 2026-04-27 17:54 | 10.21639 | -21.29001 | 43963 ft | 453 kts | 328° |
| 2026-04-27 17:54 | 10.27110 | -21.32210 | 43963 ft | 455 kts | 328° |
| 2026-04-27 17:55 | 10.32585 | -21.35423 | 43969 ft | 453 kts | 328° |
| 2026-04-27 17:55 | 10.38033 | -21.38621 | 43964 ft | 451 kts | 328° |
| 2026-04-27 17:56 | 10.43459 | -21.41807 | 43969 ft | 450 kts | 328° |
| 2026-04-27 17:56 | 10.48018 | -21.44485 | 43965 ft | 453 kts | 328° |
| 2026-04-27 17:57 | 10.54361 | -21.48214 | 43978 ft | 452 kts | 328° |
| 2026-04-27 17:57 | 10.58871 | -21.50866 | 43978 ft | 450 kts | 328° |
| 2026-04-27 17:58 | 10.64281 | -21.54048 | 43979 ft | 449 kts | 328° |
| 2026-04-27 17:58 | 10.69707 | -21.57241 | 43977 ft | 452 kts | 328° |
| 2026-04-27 17:59 | 10.75148 | -21.60444 | 43965 ft | 450 kts | 328° |
| 2026-04-27 17:59 | 10.80555 | -21.63627 | 43984 ft | 448 kts | 328° |
| 2026-04-27 18:00 | 10.85950 | -21.66807 | 43980 ft | 450 kts | 328° |
| 2026-04-27 18:00 | 10.91374 | -21.70003 | 43979 ft | 450 kts | 328° |
| 2026-04-27 18:01 | 10.96779 | -21.73191 | 43980 ft | 448 kts | 328° |
| 2026-04-27 18:01 | 11.02157 | -21.76363 | 43971 ft | 446 kts | 328° |
| 2026-04-27 18:02 | 11.07548 | -21.79545 | 43970 ft | 450 kts | 328° |
| 2026-04-27 18:02 | 11.12963 | -21.82742 | 43984 ft | 449 kts | 328° |
| 2026-04-27 18:03 | 11.18342 | -21.85919 | 43982 ft | 446 kts | 328° |
| 2026-04-27 18:03 | 11.23704 | -21.89088 | 43976 ft | 446 kts | 328° |
| 2026-04-27 18:04 | 11.29103 | -21.92280 | 43982 ft | 450 kts | 328° |
| 2026-04-27 18:04 | 11.34498 | -21.95470 | 43986 ft | 447 kts | 328° |
| 2026-04-27 18:05 | 11.39866 | -21.98647 | 43989 ft | 445 kts | 328° |
| 2026-04-27 18:05 | 11.45184 | -22.01795 | 43995 ft | 446 kts | 328° |
| 2026-04-27 18:06 | 11.50575 | -22.04989 | 43983 ft | 449 kts | 328° |
| 2026-04-27 18:06 | 11.55965 | -22.08181 | 43992 ft | 446 kts | 328° |
| 2026-04-27 18:07 | 11.61315 | -22.11353 | 43992 ft | 444 kts | 327° |
| 2026-04-27 18:07 | 11.66669 | -22.14529 | 43990 ft | 447 kts | 327° |
| 2026-04-27 18:08 | 11.72066 | -22.17730 | 43983 ft | 448 kts | 327° |
| 2026-04-27 18:08 | 11.77442 | -22.20921 | 43982 ft | 446 kts | 327° |
| 2026-04-27 18:09 | 11.82792 | -22.24098 | 43992 ft | 444 kts | 327° |
| 2026-04-27 18:09 | 11.88163 | -22.27290 | 43986 ft | 449 kts | 327° |
| 2026-04-27 18:10 | 11.93559 | -22.30496 | 43988 ft | 447 kts | 327° |
| 2026-04-27 18:10 | 11.98922 | -22.33686 | 43988 ft | 446 kts | 327° |
| 2026-04-27 18:11 | 12.04274 | -22.36870 | 43996 ft | 446 kts | 327° |
| 2026-04-27 18:11 | 12.09657 | -22.40075 | 43993 ft | 449 kts | 327° |
| 2026-04-27 18:12 | 12.15052 | -22.43286 | 43994 ft | 447 kts | 327° |
| 2026-04-27 18:12 | 12.20377 | -22.46459 | 43997 ft | 445 kts | 327° |
| 2026-04-27 18:13 | 12.25719 | -22.49643 | 43999 ft | 445 kts | 327° |
| 2026-04-27 18:13 | 12.31094 | -22.52849 | 43995 ft | 449 kts | 327° |
| 2026-04-27 18:14 | 12.36464 | -22.56052 | 43986 ft | 445 kts | 327° |
| 2026-04-27 18:14 | 12.41800 | -22.59239 | 43986 ft | 445 kts | 327° |
| 2026-04-27 18:15 | 12.47179 | -22.62451 | 43996 ft | 448 kts | 327° |
| 2026-04-27 18:15 | 12.52547 | -22.65657 | 43998 ft | 445 kts | 327° |
| 2026-04-27 18:16 | 12.57884 | -22.68848 | 43999 ft | 444 kts | 327° |
| 2026-04-27 18:16 | 12.63247 | -22.72056 | 44002 ft | 448 kts | 327° |
| 2026-04-27 18:17 | 12.68627 | -22.75274 | 44000 ft | 446 kts | 327° |
| 2026-04-27 18:17 | 12.73939 | -22.78455 | 44004 ft | 444 kts | 327° |
| 2026-04-27 18:18 | 12.79268 | -22.81646 | 44008 ft | 443 kts | 327° |
| 2026-04-27 18:18 | 12.84602 | -22.84844 | 44008 ft | 446 kts | 327° |
| 2026-04-27 18:19 | 12.89975 | -22.88064 | 44009 ft | 447 kts | 327° |
| 2026-04-27 18:19 | 12.95322 | -22.91272 | 44005 ft | 444 kts | 327° |
| 2026-04-27 18:20 | 13.00642 | -22.94465 | 44002 ft | 443 kts | 327° |
| 2026-04-27 18:20 | 13.05982 | -22.97672 | 44010 ft | 446 kts | 327° |
| 2026-04-27 18:21 | 13.11346 | -23.00894 | 44017 ft | 446 kts | 327° |
| 2026-04-27 18:21 | 13.16683 | -23.04102 | 44013 ft | 443 kts | 327° |
| 2026-04-27 18:22 | 13.21990 | -23.07294 | 44010 ft | 443 kts | 327° |
| 2026-04-27 18:22 | 13.27332 | -23.10509 | 44011 ft | 447 kts | 327° |
| 2026-04-27 18:23 | 13.32689 | -23.13732 | 44017 ft | 445 kts | 326° |
| 2026-04-27 18:23 | 13.38017 | -23.16942 | 44018 ft | 443 kts | 326° |
| 2026-04-27 18:24 | 13.43289 | -23.20118 | 44015 ft | 441 kts | 326° |
| 2026-04-27 18:24 | 13.48672 | -23.23215 | 44014 ft | 448 kts | 333° |
| 2026-04-27 18:25 | 13.54725 | -23.24959 | 44017 ft | 455 kts | 347° |
| 2026-04-27 18:25 | 13.60954 | -23.25980 | 44017 ft | 452 kts | 347° |
| 2026-04-27 18:26 | 13.67158 | -23.27022 | 44019 ft | 453 kts | 347° |
| 2026-04-27 18:26 | 13.73420 | -23.28057 | 44017 ft | 456 kts | 347° |
| 2026-04-27 18:27 | 13.79657 | -23.29097 | 44020 ft | 453 kts | 347° |
| 2026-04-27 18:27 | 13.85861 | -23.30129 | 44017 ft | 452 kts | 347° |
| 2026-04-27 18:28 | 13.92097 | -23.31170 | 44022 ft | 456 kts | 347° |
| 2026-04-27 18:28 | 13.98317 | -23.32204 | 44022 ft | 454 kts | 347° |
| 2026-04-27 18:29 | 14.04570 | -23.33248 | 44019 ft | 451 kts | 347° |
| 2026-04-27 18:29 | 14.10729 | -23.34276 | 44020 ft | 453 kts | 346° |
| 2026-04-27 18:30 | 14.16982 | -23.35320 | 44015 ft | 454 kts | 347° |
| 2026-04-27 18:30 | 14.23202 | -23.36358 | 44015 ft | 451 kts | 346° |
| 2026-04-27 18:31 | 14.29397 | -23.37395 | 44017 ft | 453 kts | 346° |
| 2026-04-27 18:31 | 14.35645 | -23.38439 | 44019 ft | 454 kts | 346° |
| 2026-04-27 18:32 | 14.41859 | -23.39478 | 44019 ft | 451 kts | 346° |
| 2026-04-27 18:32 | 14.48060 | -23.40518 | 44014 ft | 454 kts | 346° |
| 2026-04-27 18:33 | 14.54306 | -23.41563 | 44012 ft | 454 kts | 346° |
| 2026-04-27 18:33 | 14.60522 | -23.42605 | 44013 ft | 451 kts | 346° |
| 2026-04-27 18:34 | 14.66712 | -23.43643 | 44008 ft | 451 kts | 346° |
| 2026-04-27 18:34 | 14.72933 | -23.44688 | 44005 ft | 455 kts | 346° |
| 2026-04-27 18:35 | 14.79176 | -23.45734 | 44004 ft | 453 kts | 346° |
| 2026-04-27 18:35 | 14.85390 | -23.46780 | 44003 ft | 455 kts | 346° |
| 2026-04-27 18:36 | 14.91496 | -23.48266 | 44000 ft | 445 kts | 334° |
| 2026-04-27 18:36 | 14.96880 | -23.51270 | 44005 ft | 438 kts | 320° |
| 2026-04-27 18:37 | 15.01404 | -23.55402 | 44004 ft | 436 kts | 314° |
| 2026-04-27 18:37 | 15.05860 | -23.59657 | 43653 ft | 440 kts | 314° |
| 2026-04-27 18:38 | 15.08100 | -23.61807 | 43095 ft | 436 kts | 314° |
| 2026-04-27 18:38 | 15.10310 | -23.63933 | 42513 ft | 432 kts | 314° |
| 2026-04-27 18:38 | 15.12517 | -23.66053 | 41956 ft | 433 kts | 314° |
| 2026-04-27 18:38 | 15.14689 | -23.68133 | 41386 ft | 417 kts | 314° |
| 2026-04-27 18:39 | 15.16785 | -23.70141 | 40853 ft | 405 kts | 314° |
| 2026-04-27 18:39 | 15.18848 | -23.72130 | 40324 ft | 410 kts | 313° |
| 2026-04-27 18:39 | 15.20960 | -23.74169 | 39784 ft | 420 kts | 314° |
| 2026-04-27 18:39 | 15.23103 | -23.76225 | 39235 ft | 419 kts | 314° |
| 2026-04-27 18:40 | 15.25241 | -23.78271 | 38681 ft | 418 kts | 314° |
| 2026-04-27 18:40 | 15.27372 | -23.80322 | 38099 ft | 418 kts | 314° |
| 2026-04-27 18:40 | 15.29506 | -23.82381 | 37543 ft | 420 kts | 314° |
| 2026-04-27 18:40 | 15.31652 | -23.84447 | 37002 ft | 422 kts | 314° |
| 2026-04-27 18:41 | 15.33813 | -23.86524 | 36436 ft | 425 kts | 314° |
| 2026-04-27 18:41 | 15.35974 | -23.88603 | 35877 ft | 423 kts | 314° |
| 2026-04-27 18:41 | 15.38128 | -23.90678 | 35323 ft | 422 kts | 314° |
| 2026-04-27 18:41 | 15.40273 | -23.92746 | 34763 ft | 421 kts | 314° |
| 2026-04-27 18:42 | 15.42424 | -23.94820 | 34211 ft | 424 kts | 314° |
| 2026-04-27 18:42 | 15.43152 | -23.95522 | 34017 ft | 424 kts | 314° |
| 2026-04-27 18:42 | 15.46749 | -23.98988 | 33051 ft | 418 kts | 315° |
| 2026-04-27 18:42 | 15.48817 | -24.00978 | 32512 ft | 393 kts | 315° |
| 2026-04-27 18:43 | 15.50762 | -24.02854 | 32012 ft | 374 kts | 315° |
| 2026-04-27 18:43 | 15.52685 | -24.04719 | 31509 ft | 393 kts | 315° |
| 2026-04-27 18:43 | 15.54768 | -24.06739 | 30981 ft | 423 kts | 315° |
| 2026-04-27 18:43 | 15.56919 | -24.08808 | 30427 ft | 422 kts | 315° |
| 2026-04-27 18:44 | 15.59116 | -24.10922 | 29823 ft | 436 kts | 315° |
| 2026-04-27 18:44 | 15.61305 | -24.13039 | 29251 ft | 426 kts | 315° |
| 2026-04-27 18:44 | 15.63479 | -24.15144 | 28679 ft | 428 kts | 315° |
| 2026-04-27 18:44 | 15.65646 | -24.17240 | 28120 ft | 423 kts | 316° |
| 2026-04-27 18:45 | 15.67784 | -24.19304 | 27568 ft | 418 kts | 316° |
| 2026-04-27 18:45 | 15.69908 | -24.21360 | 27013 ft | 417 kts | 316° |
| 2026-04-27 18:45 | 15.71313 | -24.22721 | 26653 ft | 417 kts | 316° |
| 2026-04-27 18:45 | 15.74130 | -24.25447 | 25922 ft | 411 kts | 316° |
| 2026-04-27 18:46 | 15.75512 | -24.26784 | 25571 ft | 408 kts | 316° |
| 2026-04-27 18:46 | 15.77582 | -24.28790 | 25028 ft | 406 kts | 316° |
| 2026-04-27 18:46 | 15.79638 | -24.30781 | 24496 ft | 403 kts | 316° |
| 2026-04-27 18:46 | 15.81679 | -24.32760 | 23970 ft | 400 kts | 316° |
| 2026-04-27 18:47 | 15.84361 | -24.35359 | 23233 ft | 396 kts | 316° |
| 2026-04-27 18:47 | 15.85715 | -24.36672 | 22876 ft | 394 kts | 316° |
| 2026-04-27 18:47 | 15.88353 | -24.39230 | 22188 ft | 390 kts | 316° |
| 2026-04-27 18:47 | 15.89688 | -24.40526 | 21842 ft | 389 kts | 316° |
| 2026-04-27 18:48 | 15.91664 | -24.42444 | 21335 ft | 388 kts | 316° |
| 2026-04-27 18:48 | 15.93624 | -24.44345 | 20822 ft | 382 kts | 316° |
| 2026-04-27 18:48 | 15.95555 | -24.46221 | 20326 ft | 379 kts | 315° |
| 2026-04-27 18:48 | 15.97479 | -24.48091 | 19821 ft | 379 kts | 315° |
| 2026-04-27 18:49 | 15.99396 | -24.49952 | 19319 ft | 376 kts | 315° |
| 2026-04-27 18:49 | 16.01303 | -24.51805 | 18811 ft | 372 kts | 315° |
| 2026-04-27 18:49 | 16.03178 | -24.53627 | 18321 ft | 369 kts | 315° |
| 2026-04-27 18:49 | 16.05049 | -24.55448 | 17801 ft | 368 kts | 315° |
| 2026-04-27 18:50 | 16.06915 | -24.57262 | 17317 ft | 367 kts | 315° |
| 2026-04-27 18:50 | 16.08778 | -24.59075 | 16833 ft | 366 kts | 315° |
| 2026-04-27 18:50 | 16.10634 | -24.60880 | 16348 ft | 364 kts | 315° |
| 2026-04-27 18:50 | 16.12475 | -24.62671 | 15872 ft | 361 kts | 315° |
| 2026-04-27 18:51 | 16.14303 | -24.64452 | 15394 ft | 359 kts | 315° |
| 2026-04-27 18:51 | 16.16122 | -24.66224 | 14924 ft | 357 kts | 315° |
| 2026-04-27 18:51 | 16.17910 | -24.67964 | 14456 ft | 356 kts | 315° |
| 2026-04-27 18:51 | 16.19715 | -24.69724 | 13993 ft | 355 kts | 315° |
| 2026-04-27 18:52 | 16.21511 | -24.71475 | 13493 ft | 352 kts | 315° |
| 2026-04-27 18:52 | 16.23290 | -24.73208 | 13027 ft | 348 kts | 314° |
| 2026-04-27 18:52 | 16.25050 | -24.74924 | 12569 ft | 345 kts | 314° |
| 2026-04-27 18:53 | 16.28417 | -24.78203 | 11684 ft | 309 kts | 314° |
| 2026-04-27 18:53 | 16.29931 | -24.79678 | 11291 ft | 288 kts | 313° |
| 2026-04-27 18:53 | 16.31347 | -24.81063 | 10921 ft | 271 kts | 313° |
| 2026-04-27 18:53 | 16.32703 | -24.82390 | 10574 ft | 265 kts | 313° |
| 2026-04-27 18:54 | 16.34026 | -24.83683 | 10225 ft | 258 kts | 312° |
| 2026-04-27 18:54 | 16.35326 | -24.84953 | 9882 ft | 255 kts | 312° |
| 2026-04-27 18:54 | 16.36612 | -24.86210 | 9532 ft | 253 kts | 312° |
| 2026-04-27 18:54 | 16.37892 | -24.87462 | 9195 ft | 252 kts | 313° |
| 2026-04-27 18:55 | 16.39166 | -24.88707 | 8860 ft | 251 kts | 313° |
| 2026-04-27 18:55 | 16.40435 | -24.89948 | 8533 ft | 250 kts | 313° |
| 2026-04-27 18:55 | 16.41699 | -24.91183 | 8200 ft | 249 kts | 313° |
| 2026-04-27 18:55 | 16.42954 | -24.92409 | 7875 ft | 246 kts | 313° |
| 2026-04-27 18:56 | 16.44191 | -24.93618 | 7553 ft | 242 kts | 314° |
| 2026-04-27 18:56 | 16.45413 | -24.94815 | 7232 ft | 240 kts | 314° |
| 2026-04-27 18:56 | 16.46628 | -24.96004 | 6916 ft | 239 kts | 314° |
| 2026-04-27 18:56 | 16.47835 | -24.97185 | 6597 ft | 237 kts | 314° |
| 2026-04-27 18:57 | 16.49036 | -24.98361 | 6284 ft | 236 kts | 314° |
| 2026-04-27 18:57 | 16.50232 | -24.99530 | 5961 ft | 235 kts | 314° |
| 2026-04-27 18:57 | 16.51402 | -25.00675 | 5647 ft | 226 kts | 315° |
| 2026-04-27 18:57 | 16.52525 | -25.01777 | 5352 ft | 219 kts | 317° |
| 2026-04-27 18:58 | 16.53627 | -25.02878 | 5062 ft | 220 kts | 314° |
| 2026-04-27 18:58 | 16.54465 | -25.04201 | 4860 ft | 220 kts | 298° |
| 2026-04-27 18:58 | 16.55170 | -25.05644 | 4697 ft | 226 kts | 299° |
| 2026-04-27 18:58 | 16.55906 | -25.07108 | 4508 ft | 228 kts | 300° |
| 2026-04-27 18:59 | 16.56642 | -25.08570 | 4306 ft | 227 kts | 301° |
| 2026-04-27 18:59 | 16.57371 | -25.10024 | 4096 ft | 225 kts | 301° |
| 2026-04-27 18:59 | 16.58097 | -25.11469 | 3882 ft | 225 kts | 301° |
| 2026-04-27 18:59 | 16.58823 | -25.12918 | 3677 ft | 225 kts | 301° |
| 2026-04-27 19:00 | 16.59542 | -25.14353 | 3615 ft | 220 kts | 301° |
| 2026-04-27 19:00 | 16.60248 | -25.15762 | 3612 ft | 222 kts | 301° |
| 2026-04-27 19:00 | 16.60966 | -25.17193 | 3605 ft | 222 kts | 301° |
| 2026-04-27 19:00 | 16.61685 | -25.18628 | 3607 ft | 225 kts | 301° |
| 2026-04-27 19:01 | 16.62416 | -25.20088 | 3405 ft | 228 kts | 301° |
| 2026-04-27 19:01 | 16.63130 | -25.21521 | 3119 ft | 216 kts | 301° |
| 2026-04-27 19:01 | 16.63840 | -25.22866 | 2835 ft | 208 kts | 307° |
| 2026-04-27 19:01 | 16.64793 | -25.23911 | 2550 ft | 191 kts | 326° |
| 2026-04-27 19:02 | 16.65868 | -25.24549 | 2518 ft | 171 kts | 341° |
| 2026-04-27 19:02 | 16.67040 | -25.24868 | 2518 ft | 180 kts | 355° |
| 2026-04-27 19:02 | 16.68291 | -25.24908 | 2520 ft | 177 kts | 2° |
| 2026-04-27 19:02 | 16.69534 | -25.24935 | 2518 ft | 183 kts | 1° |
| 2026-04-27 19:03 | 16.70807 | -25.24972 | 2516 ft | 181 kts | 1° |
| 2026-04-27 19:03 | 16.72030 | -25.25004 | 2517 ft | 180 kts | 1° |
| 2026-04-27 19:03 | 16.73305 | -25.24916 | 2508 ft | 181 kts | 14° |
| 2026-04-27 19:03 | 16.74070 | -25.24608 | 2506 ft | 175 kts | 28° |
| 2026-04-27 19:04 | 16.75244 | -25.23586 | 2504 ft | 163 kts | 51° |
| 2026-04-27 19:04 | 16.75790 | -25.22556 | 2493 ft | 162 kts | 66° |
| 2026-04-27 19:04 | 16.76180 | -25.21479 | 2530 ft | 149 kts | 67° |
| 2026-04-27 19:04 | 16.76576 | -25.20426 | 2515 ft | 149 kts | 65° |
| 2026-04-27 19:05 | 16.76929 | -25.19493 | 2494 ft | 134 kts | 66° |
| 2026-04-27 19:05 | 16.77116 | -25.18544 | 2426 ft | 135 kts | 82° |
| 2026-04-27 19:05 | 16.77050 | -25.17551 | 2352 ft | 137 kts | 91° |
| 2026-04-27 19:05 | 16.76954 | -25.16585 | 2302 ft | 130 kts | 91° |
| 2026-04-27 19:06 | 16.76938 | -25.15616 | 2283 ft | 135 kts | 83° |
| 2026-04-27 19:06 | 16.77103 | -25.14665 | 2057 ft | 133 kts | 71° |
| 2026-04-27 19:06 | 16.77462 | -25.13789 | 1816 ft | 128 kts | 59° |
| 2026-04-27 19:06 | 16.77952 | -25.13044 | 1616 ft | 121 kts | 50° |
| 2026-04-27 19:07 | 16.78454 | -25.12331 | 1434 ft | 125 kts | 53° |
| 2026-04-27 19:07 | 16.78952 | -25.11598 | 1259 ft | 120 kts | 50° |
| 2026-04-27 19:07 | 16.79455 | -25.10956 | 1064 ft | 109 kts | 50° |
| 2026-04-27 19:07 | 16.79923 | -25.10349 | 1002 ft | 110 kts | 52° |
| 2026-04-27 19:08 | 16.80392 | -25.09669 | 932 ft | 116 kts | 53° |
| 2026-04-27 19:08 | 16.80859 | -25.09012 | 768 ft | 109 kts | 53° |
| 2026-04-27 19:08 | 16.81317 | -25.08365 | 618 ft | 114 kts | 53° |
| 2026-04-27 19:08 | 16.81804 | -25.07717 | 470 ft | 115 kts | 55° |
| 2026-04-27 19:09 | 16.82239 | -25.07069 | 315 ft | 97 kts | 56° |
| 2026-04-27 19:09 | 16.82621 | -25.06518 | 115 ft | 92 kts | 53° |
| 2026-04-27 19:09 | 16.82992 | -25.05991 | 46 ft | 81 kts | 52° |
| 2026-04-27 19:09 | 16.83273 | -25.05600 | 56 ft | 52 kts | 53° |
| 2026-04-27 19:10 | 16.83451 | -25.05350 | 69 ft | 35 kts | 53° |
| 2026-04-27 19:10 | 16.83534 | -25.05235 | 67 ft | 14 kts | 53° |
| 2026-04-27 19:10 | 16.83577 | -25.05180 | 78 ft | 7 kts | 38° |
| 2026-04-27 19:10 | 16.83606 | -25.05173 | 84 ft | 6 kts | 352° |
| 2026-04-27 19:11 | 16.83654 | -25.05206 | 82 ft | 6 kts | 312° |
| 2026-04-27 19:11 | 16.83653 | -25.05258 | 76 ft | 10 kts | 240° |
| 2026-04-27 19:11 | 16.83610 | -25.05329 | 73 ft | 12 kts | 238° |
| 2026-04-27 19:11 | 16.83565 | -25.05401 | 71 ft | 11 kts | 238° |
| 2026-04-27 19:12 | 16.83521 | -25.05474 | 69 ft | 13 kts | 237° |
| 2026-04-27 19:12 | 16.83491 | -25.05523 | 65 ft | 0 kts | 242° |
| 2026-04-27 19:12 | 16.83493 | -25.05543 | 66 ft | 0 kts | 290° |
| 2026-04-27 19:12 | 16.83490 | -25.05549 | 61 ft | 7 kts | 243° |
| 2026-04-27 19:13 | 16.83491 | -25.05608 | 60 ft | 2 kts | 339° |
| 2026-04-27 19:13 | 16.83497 | -25.05606 | 61 ft | 0 kts | 16° |
| 2026-04-27 19:13 | 16.83509 | -25.05601 | 64 ft | 1 kts | 26° |
| 2026-04-27 19:14 | 16.83513 | -25.05598 | 65 ft | 2 kts | 30° |
| 2026-04-27 19:14 | 16.83523 | -25.05589 | 65 ft | 5 kts | 50° |
| 2026-04-27 19:14 | 16.83525 | -25.05586 | 65 ft | 0 kts | 66° |
| 2026-04-27 19:14 | 16.83525 | -25.05584 | 65 ft | 0 kts | 67° |
| 2026-04-27 19:15 | 16.83526 | -25.05581 | 65 ft | 1 kts | 72° |
| 2026-04-27 19:15 | 16.83527 | -25.05578 | 66 ft | 0 kts | 75° |